Sukkur Weather



Sukkur's Current Weather

Temprature 40o haze

haze

Rain: 0 %

Min Temprature40o
Max Temprature40o
Humidity54
Wind Speed5.81 m/h
Sun Rise05:54:09
Sun Set19:04:50
Current Time: 13-Aug-2020 19:47:36
Lat/Lon: 27.71, 68.86




Sukkur's Geo Location



Sukkur's Weather Forecast

Time Overall Temp Min Temp Max Temp Humidity Wind Speed Rain
13-Aug-2020 (Thu)
20:00:00 few clouds 40.400 40.400 40.820 42 5.81 m/h 0 %
23:00:00 scattered clouds 36.830 35.960 36.830 50 8.1 m/h 0 %
14-Aug-2020 (Fri)
02:00:00 clear sky 33.620 33.180 33.620 59 6.29 m/h 0 %
05:00:00 clear sky 31.410 31.340 31.410 66 6.67 m/h 0 %
08:00:00 few clouds 32.290 32.290 32.290 62 4.87 m/h 0 %
11:00:00 scattered clouds 37.890 37.890 37.890 42 4.58 m/h 0 %
14:00:00 broken clouds 41.330 41.330 41.330 32 4.81 m/h 0 %
17:00:00 scattered clouds 41.750 41.750 41.750 29 4.84 m/h 0 %
20:00:00 clear sky 38.480 38.480 38.480 37 6.4 m/h 0 %
23:00:00 scattered clouds 36.190 36.190 36.190 47 5.95 m/h 0 %
15-Aug-2020 (Sat)
02:00:00 overcast clouds 33.060 33.060 33.060 58 6.76 m/h 0 %
05:00:00 overcast clouds 32.050 32.050 32.050 59 5.67 m/h 0 %
08:00:00 overcast clouds 33.440 33.440 33.440 54 5.24 m/h 0 %
11:00:00 broken clouds 39.130 39.130 39.130 36 5.44 m/h 0 %
14:00:00 clear sky 42.570 42.570 42.570 27 5.46 m/h 0 %
17:00:00 clear sky 42.710 42.710 42.710 26 4.91 m/h 0 %
20:00:00 clear sky 38.810 38.810 38.810 38 7.43 m/h 0 %
23:00:00 clear sky 35.190 35.190 35.190 51 8.17 m/h 0 %
16-Aug-2020 (Sun)
02:00:00 broken clouds 32.340 32.340 32.340 60 8.07 m/h 0 %
05:00:00 scattered clouds 31.310 31.310 31.310 65 6.39 m/h 0 %
08:00:00 overcast clouds 32.620 32.620 32.620 61 5.35 m/h 0 %
11:00:00 broken clouds 38.860 38.860 38.860 39 4.57 m/h 0 %
14:00:00 overcast clouds 42.920 42.920 42.920 27 4.26 m/h 0 %
17:00:00 overcast clouds 43.060 43.060 43.060 26 4.88 m/h 0 %
20:00:00 overcast clouds 38.700 38.700 38.700 40 8.12 m/h 0 %
23:00:00 overcast clouds 34.380 34.380 34.380 53 8.63 m/h 0 %
17-Aug-2020 (Mon)
02:00:00 scattered clouds 32.300 32.300 32.300 59 7.26 m/h 0 %
05:00:00 scattered clouds 31.150 31.150 31.150 64 6.33 m/h 0 %
08:00:00 overcast clouds 32.260 32.260 32.260 60 6.63 m/h 0 %
11:00:00 overcast clouds 37.970 37.970 37.970 41 6.39 m/h 0 %
14:00:00 broken clouds 41.380 41.380 41.380 32 7.74 m/h 0 %
17:00:00 broken clouds 39.390 39.390 39.390 35 7.36 m/h 0 %
20:00:00 overcast clouds 36.230 36.230 36.230 44 7 m/h 0 %
23:00:00 overcast clouds 34.430 34.430 34.430 51 5.69 m/h 0 %
18-Aug-2020 (Tue)
02:00:00 light rain 32.460 32.460 32.460 59 4.47 m/h 32 %
05:00:00 broken clouds 31.480 31.480 31.480 63 4.2 m/h 0 %
08:00:00 broken clouds 32.170 32.170 32.170 61 4.18 m/h 0 %
11:00:00 broken clouds 35.950 35.950 35.950 47 3.79 m/h 0 %
14:00:00 overcast clouds 37.630 37.630 37.630 41 5.37 m/h 0 %
17:00:00 overcast clouds 38.450 38.450 38.450 38 4.76 m/h 0 %

Famous Cities (60)